Time;durP1;ratioP1;P1;durP2;ratioP2;P2;SDS_P1;SDS_P2;PMS_P1;PMS_P2;Temp;Humidity;BMP_temperature;BMP_pressure;BME280_temperature;BME280_humidity;BME280_pressure;Samples;Min_cycle;Max_cycle;Signal;HPM_P1;HPM_P2
2023/12/23 00:00:30;;;;;;;4.50;2.20;;;;;;;9.22;95.20;98681.06;7238087;40;20602;31
2023/12/23 00:06:06;;;;;;;5.50;2.10;;;;;;;9.20;95.35;98666.97;7246513;40;20712;31
2023/12/23 00:16:43;;;;;;;8.30;2.00;;;;;;;9.23;94.67;98672.84;7263338;40;21264;31
2023/12/23 00:22:18;;;;;;;3.85;1.60;;;;;;;9.27;94.42;98719.03;7282048;39;20446;31
2023/12/23 00:27:53;;;;;;;5.27;1.87;;;;;;;9.23;94.55;98680.91;7290372;39;20264;31
2023/12/23 00:33:29;;;;;;;9.00;1.73;;;;;;;9.22;94.38;98687.28;7257727;40;20597;31
2023/12/23 00:39:04;;;;;;;3.00;1.80;;;;;;;9.24;93.41;98717.53;7198689;40;20326;31
2023/12/23 00:44:40;;;;;;;4.20;1.57;;;;;;;9.22;93.98;98713.34;7157054;40;20231;31
2023/12/23 00:50:16;;;;;;;4.65;1.55;;;;;;;9.18;94.52;98717.38;7198691;40;20258;31
2023/12/23 00:55:38;;;;;;;4.70;1.60;;;;;;;9.21;94.68;98747.47;7173164;40;20239;31
2023/12/23 01:01:13;;;;;;;7.57;2.13;;;;;;;9.19;94.15;98737.88;7205749;40;20389;31
2023/12/23 01:06:50;;;;;;;6.40;2.10;;;;;;;9.17;93.56;98754.16;7209729;40;20317;31
2023/12/23 01:12:24;;;;;;;4.75;1.80;;;;;;;9.21;93.66;98760.06;7165742;40;20250;31
2023/12/23 01:17:42;;;;;;;6.43;2.00;;;;;;;9.20;93.44;98766.44;7177466;40;21669;31
2023/12/23 01:23:15;;;;;;;5.17;1.60;;;;;;;9.17;92.95;98772.19;7178588;40;20240;31
2023/12/23 01:28:35;;;;;;;3.95;1.60;;;;;;;9.17;93.21;98788.31;7217291;40;20343;31
2023/12/23 01:33:57;;;;;;;4.20;1.87;;;;;;;9.15;93.10;98787.63;7224618;40;20256;31
2023/12/23 01:39:32;;;;;;;5.10;1.80;;;;;;;9.10;94.32;98776.53;7292864;39;20367;31
2023/12/23 01:45:09;;;;;;;6.20;2.10;;;;;;;9.11;94.63;98783.59;7264638;39;20242;31
2023/12/23 01:50:43;;;;;;;4.80;1.80;;;;;;;9.04;94.60;98792.31;7176858;40;20335;31
2023/12/23 02:01:23;;;;;;;7.40;2.10;;;;;;;9.03;94.71;98801.41;7224952;40;20422;31
2023/12/23 02:06:44;;;;;;;7.00;2.15;;;;;;;9.07;94.87;98793.84;7209126;40;20235;31
2023/12/23 02:12:17;;;;;;;5.20;2.00;;;;;;;9.02;94.09;98796.19;7219694;40;20462;31
2023/12/23 02:17:54;;;;;;;7.40;2.03;;;;;;;9.01;93.34;98800.72;7221832;40;20242;31
2023/12/23 02:23:30;;;;;;;4.70;1.80;;;;;;;9.01;93.50;98803.41;7187430;40;20309;31
2023/12/23 02:29:06;;;;;;;7.67;1.80;;;;;;;9.00;93.06;98793.66;7178673;40;20397;31
2023/12/23 02:34:40;;;;;;;6.70;2.00;;;;;;;9.01;91.99;98794.50;7113990;40;20344;31
2023/12/23 02:40:16;;;;;;;5.10;1.90;;;;;;;8.99;92.65;98791.97;7160966;40;20310;31
2023/12/23 02:45:37;;;;;;;5.20;1.60;;;;;;;9.02;91.98;98793.50;7160929;40;20422;31
2023/12/23 02:56:15;;;;;;;6.93;2.37;;;;;;;9.00;91.25;98790.13;7194550;40;21331;31
2023/12/23 03:07:36;;;;;;;4.23;1.60;;;;;;;9.01;92.32;98800.72;7236534;40;20252;31
2023/12/23 03:18:13;;;;;;;5.20;2.00;;;;;;;8.96;92.47;98813.81;7283791;39;20858;31
2023/12/23 03:23:34;;;;;;;7.07;1.70;;;;;;;9.01;92.78;98810.63;7239452;40;20328;31
2023/12/23 03:28:55;;;;;;;6.25;1.95;;;;;;;8.99;92.36;98791.97;7236925;40;20241;31
2023/12/23 03:34:31;;;;;;;5.70;1.90;;;;;;;8.96;92.77;98783.41;7235496;40;20788;31
2023/12/23 03:39:52;;;;;;;5.33;1.80;;;;;;;8.99;92.63;98765.09;7237679;40;20261;31
2023/12/23 03:45:12;;;;;;;4.90;1.85;;;;;;;8.98;92.36;98771.50;7257762;40;20386;31
2023/12/23 03:50:46;;;;;;;6.50;1.93;;;;;;;8.93;92.45;98765.78;7235760;40;20261;31
2023/12/23 03:56:06;;;;;;;7.53;2.03;;;;;;;8.94;92.60;98762.09;7172394;40;20320;31
2023/12/23 04:01:27;;;;;;;7.33;2.10;;;;;;;8.93;93.09;98783.75;7200441;40;20261;31
2023/12/23 04:07:04;;;;;;;6.50;2.20;;;;;;;8.93;92.72;98789.13;7179316;40;20243;31
2023/12/23 04:12:40;;;;;;;9.30;2.10;;;;;;;8.93;92.76;98768.47;7188446;40;20246;31
2023/12/23 04:17:59;;;;;;;7.15;2.05;;;;;;;8.93;92.04;98755.03;7218117;40;20762;31
2023/12/23 04:23:34;;;;;;;6.55;2.20;;;;;;;8.92;91.93;98752.50;7247489;40;20346;31
2023/12/23 04:29:07;;;;;;;4.30;2.40;;;;;;;8.93;91.92;98752.34;6966512;40;20379;31
2023/12/23 04:34:27;;;;;;;6.37;2.47;;;;;;;8.92;92.10;98731.00;7098445;40;20252;31
2023/12/23 04:40:04;;;;;;;3.57;1.70;;;;;;;8.89;91.17;98737.56;7102147;40;20244;31
2023/12/23 04:45:24;;;;;;;3.80;1.80;;;;;;;8.92;91.30;98749.81;7146852;40;20265;31
2023/12/23 04:50:45;;;;;;;4.25;1.75;;;;;;;8.92;91.14;98747.97;7276708;40;20670;31
2023/12/23 04:56:20;;;;;;;3.30;1.65;;;;;;;8.91;90.95;98761.56;7234200;40;20343;31
2023/12/23 05:01:55;;;;;;;2.80;1.50;;;;;;;8.89;90.67;98740.25;7193246;40;20372;31
2023/12/23 05:07:30;;;;;;;6.50;2.00;;;;;;;8.89;91.09;98767.13;7239916;40;20713;31
2023/12/23 05:13:06;;;;;;;3.70;1.70;;;;;;;8.88;90.96;98752.00;7167548;40;20381;31
2023/12/23 05:18:26;;;;;;;5.60;1.90;;;;;;;8.93;91.27;98756.88;7148560;40;20352;31
2023/12/23 05:23:46;;;;;;;2.20;1.40;;;;;;;8.93;90.60;98733.53;7177934;40;20330;31
2023/12/23 05:29:23;;;;;;;5.60;1.90;;;;;;;8.90;91.10;98720.44;7212364;40;20227;31
2023/12/23 05:34:43;;;;;;;4.60;1.80;;;;;;;8.93;90.93;98755.03;7241851;39;20241;31
2023/12/23 05:40:16;;;;;;;4.40;1.60;;;;;;;8.89;91.17;98734.88;7294640;39;20424;31
2023/12/23 05:45:52;;;;;;;4.97;1.80;;;;;;;8.91;90.83;98735.53;7235919;40;20316;31
2023/12/23 05:51:27;;;;;;;4.75;1.90;;;;;;;8.95;90.97;98728.00;7178110;40;20326;31
2023/12/23 05:56:47;;;;;;;6.60;2.00;;;;;;;8.93;90.64;98735.37;7118183;40;20461;31
2023/12/23 06:02:23;;;;;;;4.77;1.73;;;;;;;8.91;90.81;98727.47;7115484;41;20248;31
2023/12/23 06:07:44;;;;;;;8.00;1.90;;;;;;;8.93;91.12;98752.34;7139381;40;20334;31
2023/12/23 06:13:19;;;;;;;7.20;2.20;;;;;;;8.92;91.38;98733.69;7191474;40;20487;31
2023/12/23 06:18:53;;;;;;;4.80;2.10;;;;;;;8.87;91.75;98746.78;7250460;39;20701;31
2023/12/23 06:24:28;;;;;;;9.70;2.10;;;;;;;8.84;92.21;98720.25;7260266;40;20246;31
2023/12/23 06:30:03;;;;;;;4.90;2.60;;;;;;;8.81;92.39;98721.44;7237147;40;20476;31
2023/12/23 06:35:37;;;;;;;4.20;2.00;;;;;;;8.82;92.55;98738.41;7218073;40;20247;31
2023/12/23 06:41:07;;;;;;;7.13;2.60;;;;;;;8.81;92.82;98740.25;7197189;40;20256;31
2023/12/23 06:46:27;;;;;;;7.75;2.10;;;;;;;8.83;92.64;98737.38;7137239;40;20246;31
2023/12/23 06:52:03;;;;;;;5.30;2.50;;;;;;;8.80;92.19;98740.41;7175885;40;20395;31
2023/12/23 06:57:39;;;;;;;5.60;2.00;;;;;;;8.77;92.75;98728.16;7149123;40;20381;31
2023/12/23 07:03:13;;;;;;;3.97;1.90;;;;;;;8.76;94.06;98706.81;7184278;40;20242;31
2023/12/23 07:08:49;;;;;;;3.45;1.70;;;;;;;8.68;94.12;98725.63;7139385;40;20255;31
2023/12/23 07:14:09;;;;;;;4.25;2.10;;;;;;;8.67;94.93;98743.56;7169816;40;21395;31
2023/12/23 07:19:30;;;;;;;2.83;1.60;;;;;;;8.65;95.43;98737.50;7197401;40;20238;31
2023/12/23 07:25:03;;;;;;;4.20;1.80;;;;;;;8.59;95.08;98706.81;7164353;40;20262;31
2023/12/23 07:35:23;;;;;;;2.20;1.50;;;;;;;8.61;95.00;98738.84;7236315;40;21393;31
2023/12/23 07:46:04;;;;;;;1.50;1.27;;;;;;;8.54;95.46;98741.38;7281785;39;20293;31
2023/12/23 07:51:24;;;;;;;1.70;1.00;;;;;;;8.55;95.50;98755.66;7278544;40;20245;31
2023/12/23 08:02:01;;;;;;;1.90;1.10;;;;;;;8.57;96.01;98754.47;7256078;40;21534;31
2023/12/23 08:13:12;;;;;;;1.70;1.10;;;;;;;8.60;95.49;98762.19;7233163;40;20762;31
2023/12/23 08:18:46;;;;;;;1.10;1.00;;;;;;;8.59;96.19;98748.94;7216950;40;20262;31
2023/12/23 08:24:07;;;;;;;1.03;0.90;;;;;;;8.64;96.06;98768.09;7257949;40;20294;31
2023/12/23 08:29:28;;;;;;;0.80;0.80;;;;;;;8.63;95.69;98758.34;7278038;40;20350;31
2023/12/23 08:35:05;;;;;;;3.25;1.70;;;;;;;8.62;96.01;98764.72;7244259;40;20747;31
2023/12/23 08:40:39;;;;;;;1.15;0.80;;;;;;;8.63;95.88;98789.75;7211746;40;20278;31
2023/12/23 08:46:15;;;;;;;1.55;0.80;;;;;;;8.64;96.33;98800.34;7198639;40;20231;31
2023/12/23 08:51:45;;;;;;;0.70;0.70;;;;;;;8.63;96.53;98795.13;7198003;40;20395;31
2023/12/23 08:57:06;;;;;;;1.57;0.70;;;;;;;8.64;96.77;98792.28;7175728;40;20270;31
2023/12/23 09:02:41;;;;;;;1.20;0.70;;;;;;;8.57;97.33;98804.66;7244828;40;20707;31
2023/12/23 09:08:15;;;;;;;0.97;0.87;;;;;;;8.57;97.66;98800.12;7232893;40;20257;31
2023/12/23 09:13:51;;;;;;;3.03;2.27;;;;;;;8.55;97.72;98806.69;7215764;40;20252;31
2023/12/23 09:19:12;;;;;;;2.45;1.30;;;;;;;8.59;98.42;98826.84;7239224;40;20242;31
2023/12/23 09:24:47;;;;;;;3.80;2.80;;;;;;;8.55;98.14;98836.22;7217305;40;20343;31
2023/12/23 09:30:23;;;;;;;0.80;0.80;;;;;;;8.61;97.54;98819.44;7261319;40;20335;31
2023/12/23 09:35:58;;;;;;;1.15;0.80;;;;;;;8.56;98.06;98811.03;7232370;40;20333;31
2023/12/23 09:41:34;;;;;;;1.73;1.30;;;;;;;8.58;97.75;98806.34;7198225;40;21363;31
2023/12/23 09:47:09;;;;;;;0.53;0.53;;;;;;;8.62;97.89;98812.22;7188149;40;20250;31
2023/12/23 09:52:44;;;;;;;1.20;0.50;;;;;;;8.62;97.86;98813.06;7186007;40;20270;31
2023/12/23 09:58:21;;;;;;;0.75;0.70;;;;;;;8.62;97.80;98829.19;7106517;40;20485;31
2023/12/23 10:03:41;;;;;;;0.70;0.70;;;;;;;8.65;97.80;98823.47;7141304;40;20353;31
2023/12/23 10:09:16;;;;;;;0.50;0.50;;;;;;;8.64;97.73;98832.56;7158958;40;20269;31
2023/12/23 10:14:51;;;;;;;0.57;0.53;;;;;;;8.60;97.73;98805.16;7210966;40;21358;31
2023/12/23 10:20:27;;;;;;;0.80;0.80;;;;;;;8.65;97.74;98807.38;7195715;40;20254;31
2023/12/23 10:26:02;;;;;;;0.60;0.60;;;;;;;8.64;98.15;98783.38;7187894;40;20400;31
2023/12/23 10:31:36;;;;;;;0.60;0.60;;;;;;;8.64;97.56;98786.91;7158188;40;20465;31
2023/12/23 10:37:11;;;;;;;0.83;0.60;;;;;;;8.65;97.69;98799.31;7169745;40;20436;31
2023/12/23 10:42:46;;;;;;;0.50;0.50;;;;;;;8.71;97.64;98779.00;7198961;40;20262;31
2023/12/23 10:48:23;;;;;;;1.00;0.90;;;;;;;8.66;97.77;98784.88;7193472;40;20331;31
2023/12/23 10:53:58;;;;;;;6.87;4.07;;;;;;;8.71;97.83;98781.69;7169653;40;20455;31
2023/12/23 10:59:33;;;;;;;0.95;0.90;;;;;;;8.73;98.02;98802.00;7109235;40;20244;31
2023/12/23 11:05:06;;;;;;;1.00;0.87;;;;;;;8.74;97.95;98824.34;6922363;40;21169;31
2023/12/23 11:10:41;;;;;;;1.10;1.00;;;;;;;8.72;97.96;98829.91;7118101;40;20247;31
2023/12/23 11:16:02;;;;;;;1.25;1.15;;;;;;;8.76;98.61;98839.31;7098202;41;20252;31
2023/12/23 11:21:37;;;;;;;1.30;1.10;;;;;;;8.73;97.82;98796.63;7119392;40;20489;31
2023/12/23 11:26:57;;;;;;;1.60;1.47;;;;;;;8.74;98.33;98814.44;7090640;40;20323;31
2023/12/23 11:32:18;;;;;;;1.30;1.00;;;;;;;8.75;97.16;98791.94;7102189;40;20244;31
2023/12/23 11:38:05;;;;;;;1.80;1.70;;;;;;;8.77;98.34;98806.06;7198874;40;20249;31
2023/12/23 11:43:25;;;;;;;2.33;1.53;;;;;;;8.83;97.19;98805.37;7184366;40;20245;31
2023/12/23 11:49:11;;;;;;;;;;;;;;;;;;;;;
2023/12/23 11:54:37;;;;;;;1.60;1.30;;;;;;;8.85;97.07;98824.06;7185755;40;20251;31
2023/12/23 12:00:12;;;;;;;1.50;1.30;;;;;;;8.91;96.86;98794.66;7252421;40;20253;31
2023/12/23 12:05:47;;;;;;;1.70;1.50;;;;;;;8.93;96.97;98800.72;7228980;40;20312;31
2023/12/23 12:11:22;;;;;;;2.10;1.67;;;;;;;8.99;96.79;98797.34;7208023;40;20245;31
2023/12/23 12:16:56;;;;;;;2.30;1.45;;;;;;;9.03;95.53;98801.41;7229843;40;20340;31
2023/12/23 12:22:31;;;;;;;1.60;1.30;;;;;;;9.01;95.34;98792.66;7220387;40;20407;31
2023/12/23 12:28:10;;;;;;;1.07;0.97;;;;;;;9.07;95.91;98799.22;7217409;40;20266;31
2023/12/23 12:33:30;;;;;;;1.90;1.40;;;;;;;9.05;95.83;98804.75;7167704;40;20257;31
2023/12/23 12:39:04;;;;;;;1.77;1.27;;;;;;;9.00;96.56;98803.56;7188580;40;20241;31
2023/12/23 12:44:40;;;;;;;1.73;1.40;;;;;;;9.01;97.25;98792.66;7228096;40;20246;31
2023/12/23 12:50:15;;;;;;;1.10;0.80;;;;;;;8.99;97.44;98810.78;7186358;40;20257;31
2023/12/23 12:55:36;;;;;;;1.40;1.30;;;;;;;8.99;96.90;98809.97;7180361;40;20251;31
2023/12/23 13:01:12;;;;;;;1.35;1.20;;;;;;;9.01;96.94;98797.19;7205942;40;20264;31
2023/12/23 13:06:47;;;;;;;1.20;1.10;;;;;;;9.01;96.66;98773.00;7164767;40;20355;31
2023/12/23 13:12:22;;;;;;;0.83;0.83;;;;;;;8.93;97.40;98816.00;7181006;40;20310;31
2023/12/23 13:17:59;;;;;;;0.70;0.70;;;;;;;8.93;98.00;98826.75;7202852;40;20342;31
2023/12/23 13:23:19;;;;;;;1.70;1.50;;;;;;;8.91;99.00;98815.31;7188158;40;20376;31
2023/12/23 13:28:39;;;;;;;1.20;1.10;;;;;;;8.93;98.57;98810.63;7207827;40;20383;31
2023/12/23 13:34:16;;;;;;;1.63;0.60;;;;;;;8.92;98.09;98806.25;7209551;40;20246;31
2023/12/23 13:39:37;;;;;;;2.30;1.20;;;;;;;8.93;98.46;98800.72;7157734;40;20246;31
2023/12/23 13:44:57;;;;;;;1.70;1.33;;;;;;;8.94;97.90;98821.22;7205927;40;21484;31
2023/12/23 13:50:33;;;;;;;1.23;1.00;;;;;;;8.94;98.26;98821.22;7237696;40;21421;31
2023/12/23 13:56:09;;;;;;;1.23;0.80;;;;;;;8.93;98.06;98821.38;7235220;40;20265;31
2023/12/23 14:01:29;;;;;;;0.90;0.80;;;;;;;8.94;98.08;98839.19;7251934;40;20256;31
2023/12/23 14:07:05;;;;;;;1.27;1.17;;;;;;;8.92;97.95;98842.03;7227270;40;20234;31
2023/12/23 14:12:26;;;;;;;2.23;1.73;;;;;;;8.94;98.28;98839.19;7198910;40;20292;31
2023/12/23 14:18:03;;;;;;;1.43;1.10;;;;;;;8.94;97.35;98842.72;7227114;40;20261;31
2023/12/23 14:23:36;;;;;;;1.43;0.80;;;;;;;8.95;96.83;98839.00;7207082;40;20243;31
2023/12/23 14:28:58;;;;;;;0.80;0.80;;;;;;;8.97;96.37;98841.53;7197354;40;20261;31
2023/12/23 14:34:18;;;;;;;3.53;1.77;;;;;;;8.98;96.33;98846.75;7205312;40;20295;31
2023/12/23 14:39:53;;;;;;;3.70;2.30;;;;;;;8.98;96.25;98862.88;7229724;40;20257;31
2023/12/23 14:45:14;;;;;;;2.73;1.30;;;;;;;8.99;95.57;98853.78;7256914;40;20472;31
2023/12/23 14:50:36;;;;;;;1.50;1.20;;;;;;;8.93;96.51;98884.03;7304850;39;20444;31
2023/12/23 14:56:12;;;;;;;1.87;1.03;;;;;;;8.93;96.69;98881.34;7306837;39;20325;31
2023/12/23 15:01:44;;;;;;;3.27;1.60;;;;;;;8.94;96.87;98899.16;7227921;40;20340;31
2023/12/23 15:06:53;;;;;;;2.00;1.57;;;;;;;8.94;97.15;98888.41;7159211;40;20295;31
2023/12/23 15:12:27;;;;;;;1.10;0.90;;;;;;;8.90;96.75;98902.34;7198463;40;20264;31
2023/12/23 15:17:47;;;;;;;14.05;7.40;;;;;;;8.92;96.55;98906.53;7224696;40;20391;31
2023/12/23 15:23:21;;;;;;;4.90;3.40;;;;;;;8.87;97.97;98922.31;7222890;40;20261;31
2023/12/23 15:28:54;;;;;;;1.40;1.15;;;;;;;8.87;97.65;98903.50;7267070;39;20428;31
2023/12/23 15:39:34;;;;;;;2.53;1.53;;;;;;;8.92;97.56;98917.28;7242351;40;20341;31
2023/12/23 15:50:15;;;;;;;3.47;2.47;;;;;;;8.87;97.51;98900.81;7237075;39;20273;31
2023/12/23 15:55:50;;;;;;;2.25;1.85;;;;;;;8.86;97.83;98901.81;7217124;40;20407;31
2023/12/23 16:01:24;;;;;;;2.13;1.60;;;;;;;8.85;98.04;98918.94;7180892;40;20266;31
2023/12/23 16:06:57;;;;;;;1.80;1.50;;;;;;;8.85;98.13;98913.56;7164274;40;20321;31
2023/12/23 16:12:18;;;;;;;1.80;1.65;;;;;;;8.88;98.53;98915.09;7163534;40;20350;31
2023/12/23 16:17:39;;;;;;;1.70;1.10;;;;;;;8.88;98.17;98915.09;7135047;40;20262;31
2023/12/23 16:23:15;;;;;;;1.70;1.10;;;;;;;8.88;98.23;98913.25;7168460;40;20243;31
2023/12/23 16:28:50;;;;;;;1.40;0.90;;;;;;;8.84;98.74;98913.72;7168066;40;20321;31
2023/12/23 16:34:25;;;;;;;0.75;0.75;;;;;;;8.83;98.91;98922.78;7213906;40;20250;31
2023/12/23 16:40:02;;;;;;;1.55;1.00;;;;;;;8.80;99.26;98915.91;7229333;40;20261;31
2023/12/23 16:45:22;;;;;;;1.17;0.97;;;;;;;8.82;99.53;98905.00;7247263;40;20375;31
2023/12/23 16:50:56;;;;;;;2.37;1.37;;;;;;;8.83;98.84;98915.56;7234738;40;20336;31
2023/12/23 17:01:38;;;;;;;1.30;1.10;;;;;;;8.84;98.16;98914.56;7238192;39;20275;31
2023/12/23 17:06:58;;;;;;;1.75;1.10;;;;;;;8.85;98.75;98926.16;7239613;40;20260;31
2023/12/23 17:12:33;;;;;;;1.50;1.10;;;;;;;8.84;99.28;98913.72;7228103;40;20237;31
2023/12/23 17:18:09;;;;;;;1.13;1.00;;;;;;;8.80;98.49;98913.22;7212302;40;20448;31
2023/12/23 17:23:29;;;;;;;2.20;0.87;;;;;;;8.81;99.19;98896.09;7207647;40;21348;31
2023/12/23 17:28:49;;;;;;;1.17;1.07;;;;;;;8.79;99.18;98910.69;7214474;40;20257;31
2023/12/23 17:34:23;;;;;;;1.10;1.00;;;;;;;8.78;99.49;98939.41;7233161;40;20258;31
2023/12/23 17:45:03;;;;;;;1.70;1.03;;;;;;;8.83;99.35;98973.84;7234868;40;20802;31
2023/12/23 17:55:40;;;;;;;1.25;1.00;;;;;;;8.83;99.98;98945.12;7075660;40;20413;31
2023/12/23 18:01:15;;;;;;;1.80;1.20;;;;;;;8.83;100.00;98963.09;7238687;40;20387;31
2023/12/23 18:06:50;;;;;;;1.60;1.30;;;;;;;8.83;100.00;98952.34;7224524;40;20257;31
2023/12/23 18:12:26;;;;;;;1.50;1.40;;;;;;;8.84;100.00;98962.09;7215378;40;20317;31
2023/12/23 18:17:46;;;;;;;3.83;1.70;;;;;;;8.90;99.52;98962.31;7218052;40;20277;31
2023/12/23 18:23:09;;;;;;;2.63;1.17;;;;;;;8.87;99.85;98946.50;7216721;40;20352;31
2023/12/23 18:28:44;;;;;;;1.10;1.00;;;;;;;8.87;99.78;98945.66;7197743;40;20307;31
2023/12/23 18:34:19;;;;;;;1.20;1.10;;;;;;;8.93;100.00;98953.06;7208852;40;20399;31
2023/12/23 18:39:55;;;;;;;2.65;1.50;;;;;;;8.93;99.84;98964.66;7166186;40;21541;31
2023/12/23 18:45:28;;;;;;;1.93;1.30;;;;;;;8.91;100.00;98963.97;7192234;40;20374;31
2023/12/23 18:55:49;;;;;;;1.80;1.20;;;;;;;8.97;99.85;98951.75;7212318;40;21499;31
2023/12/23 19:01:25;;;;;;;1.23;1.13;;;;;;;8.95;99.44;98954.56;7210228;40;20357;31
2023/12/23 19:07:00;;;;;;;1.40;1.20;;;;;;;8.95;99.06;98938.44;7268662;39;20259;31
2023/12/23 19:12:35;;;;;;;2.77;1.30;;;;;;;8.95;98.86;98965.31;7278116;40;20260;31
2023/12/23 19:18:11;;;;;;;1.60;1.40;;;;;;;8.98;98.25;98954.28;7235553;40;20261;31
2023/12/23 19:23:46;;;;;;;1.53;1.20;;;;;;;9.01;98.28;98940.50;7201620;40;20258;31
2023/12/23 19:29:08;;;;;;;2.40;1.40;;;;;;;9.04;97.85;98931.25;7198671;40;20256;31
2023/12/23 19:34:41;;;;;;;2.00;1.60;;;;;;;9.07;97.29;98957.84;7210128;40;20239;31
2023/12/23 19:40:01;;;;;;;2.63;1.60;;;;;;;9.11;97.48;98969.09;7234575;40;20246;31
2023/12/23 19:45:22;;;;;;;2.57;1.40;;;;;;;9.11;97.72;98964.56;7245567;40;20264;31
2023/12/23 19:50:56;;;;;;;2.67;1.40;;;;;;;9.12;97.24;98977.00;7229975;40;20246;31
2023/12/23 19:56:31;;;;;;;2.30;1.40;;;;;;;9.13;97.27;98967.91;7160884;40;20253;31
2023/12/23 20:01:51;;;;;;;2.60;1.40;;;;;;;9.16;97.36;98962.22;7205813;40;20419;31
2023/12/23 20:12:32;;;;;;;2.23;1.63;;;;;;;9.20;96.71;98965.44;7182999;40;20737;31
2023/12/23 20:17:52;;;;;;;3.00;1.70;;;;;;;9.23;97.21;98979.37;7236795;40;20237;31
2023/12/23 20:23:15;;;;;;;2.97;1.40;;;;;;;9.25;96.02;99004.28;7256570;40;20413;31
2023/12/23 20:28:45;;;;;;;3.60;1.40;;;;;;;9.26;95.66;98984.44;7240904;40;20265;31
2023/12/23 20:34:20;;;;;;;1.80;1.40;;;;;;;9.31;95.48;98986.63;7223321;40;20437;31
2023/12/23 20:39:52;;;;;;;1.20;1.00;;;;;;;9.30;94.44;98985.78;7199526;40;20253;31
2023/12/23 20:45:25;;;;;;;3.63;1.60;;;;;;;9.32;94.58;98991.84;7227984;40;20242;31
2023/12/23 20:50:47;;;;;;;2.07;1.10;;;;;;;9.34;94.60;99006.00;7188056;40;20247;31
2023/12/23 20:56:07;;;;;;;1.30;1.10;;;;;;;9.31;95.22;98976.72;7176887;40;20246;31
2023/12/23 21:01:43;;;;;;;1.60;1.20;;;;;;;9.30;95.38;98999.22;7178543;40;20223;31
2023/12/23 21:07:07;;;;;;;2.40;1.40;;;;;;;9.30;96.12;99011.84;7178231;40;20239;31
2023/12/23 21:12:25;;;;;;;3.20;1.60;;;;;;;9.30;95.99;99011.84;7192099;40;20247;31
2023/12/23 21:18:01;;;;;;;2.25;1.70;;;;;;;9.28;96.47;99003.09;7224442;40;20246;31
2023/12/23 21:23:36;;;;;;;2.10;1.70;;;;;;;9.30;95.93;99028.00;7197798;40;20266;31
2023/12/23 21:29:11;;;;;;;2.80;2.15;;;;;;;9.28;95.50;99003.09;7159262;40;20252;31
2023/12/23 21:34:48;;;;;;;1.90;1.50;;;;;;;9.30;94.94;99015.38;7165001;40;20414;31
2023/12/23 21:45:24;;;;;;;2.25;1.30;;;;;;;9.37;94.68;99002.13;7172136;40;20269;31
2023/12/23 21:56:01;;;;;;;1.60;1.40;;;;;;;9.32;95.06;99017.91;7230892;39;21430;31
2023/12/23 22:01:33;;;;;;;1.50;1.40;;;;;;;9.30;96.12;99004.59;7260299;40;20335;31
2023/12/23 22:12:10;;;;;;;1.80;1.40;;;;;;;9.34;94.06;99007.84;7260669;40;21268;31
2023/12/23 22:22:47;;;;;;;2.20;1.40;;;;;;;9.37;94.58;99040.63;7243672;40;21422;31
2023/12/23 22:28:23;;;;;;;2.87;1.30;;;;;;;9.30;95.00;99036.06;7197891;40;20239;31
2023/12/23 22:33:45;;;;;;;3.15;1.30;;;;;;;9.30;95.49;99023.44;7140907;40;20348;31
2023/12/23 22:39:06;;;;;;;2.90;1.37;;;;;;;9.27;95.35;99039.91;7181450;40;20249;31
2023/12/23 22:44:41;;;;;;;3.15;1.30;;;;;;;9.27;95.57;99006.78;7210532;40;20410;31
2023/12/23 22:50:16;;;;;;;2.50;1.60;;;;;;;9.24;94.98;99013.34;7226786;40;20253;31
2023/12/23 22:55:37;;;;;;;2.70;1.60;;;;;;;9.26;94.85;99022.06;7211043;40;20247;31
2023/12/23 23:01:14;;;;;;;3.25;1.60;;;;;;;9.27;95.03;99039.91;7214914;40;20264;31
2023/12/23 23:06:35;;;;;;;4.20;1.50;;;;;;;9.25;96.24;99041.09;7189042;40;20322;31
2023/12/23 23:12:10;;;;;;;1.60;1.40;;;;;;;9.20;96.10;99009.28;7216073;40;20242;31
2023/12/23 23:17:47;;;;;;;2.33;1.50;;;;;;;9.17;96.86;99006.91;7153908;40;20278;31
2023/12/23 23:23:20;;;;;;;1.90;1.30;;;;;;;9.19;97.77;99020.22;7222378;40;20260;31
2023/12/23 23:28:55;;;;;;;1.90;1.30;;;;;;;9.16;97.59;99009.78;7178718;40;20343;31
2023/12/23 23:34:32;;;;;;;1.90;1.50;;;;;;;9.16;96.91;99012.47;7137427;40;20359;31
2023/12/23 23:39:53;;;;;;;1.97;1.57;;;;;;;9.21;96.64;99015.53;7118118;40;20323;31
2023/12/23 23:45:28;;;;;;;1.57;1.20;;;;;;;9.20;95.35;99005.75;7155421;40;20237;31
2023/12/23 23:51:06;;;;;;;1.70;1.40;;;;;;;9.23;94.88;99008.13;7178271;40;20242;31
2023/12/23 23:56:41;;;;;;;2.67;1.50;;;;;;;9.22;93.99;99006.44;7181081;40;20407;31
